createdAt,value
2023-05-14T00:00:15.595Z,12.47
2023-05-14T00:01:15.562Z,12.44
2023-05-14T00:02:15.573Z,12.37
2023-05-14T00:03:15.611Z,12.32
2023-05-14T00:04:15.442Z,12.32
2023-05-14T00:05:15.388Z,12.37
2023-05-14T00:06:15.334Z,12.37
2023-05-14T00:07:15.292Z,12.35
2023-05-14T00:08:15.304Z,12.32
2023-05-14T00:09:15.217Z,12.32
2023-05-14T00:10:15.176Z,12.29
2023-05-14T00:11:15.375Z,12.28
2023-05-14T00:12:15.171Z,12.25
2023-05-14T00:13:15.059Z,12.21
2023-05-14T00:14:15.038Z,12.25
2023-05-14T00:15:14.994Z,12.30
2023-05-14T00:16:14.970Z,12.28
2023-05-14T00:17:14.852Z,12.28
2023-05-14T00:18:14.818Z,12.23
2023-05-14T00:19:14.881Z,12.30
2023-05-14T00:20:14.745Z,12.26
2023-05-14T00:21:14.679Z,12.30
2023-05-14T00:22:14.658Z,12.28
2023-05-14T00:23:14.600Z,12.28
2023-05-14T00:24:14.543Z,12.18
2023-05-14T00:25:14.502Z,12.25
2023-05-14T00:26:14.457Z,12.26
2023-05-14T00:27:14.412Z,12.20
2023-05-14T00:28:14.367Z,12.20
2023-05-14T00:29:14.326Z,12.21
2023-05-14T00:30:14.293Z,12.18
2023-05-14T00:31:14.250Z,12.14
2023-05-14T00:32:14.192Z,12.20
2023-05-14T00:33:14.154Z,12.14
2023-05-14T00:34:14.100Z,12.14
2023-05-14T00:35:14.068Z,12.10
2023-05-14T00:36:14.031Z,12.14
2023-05-14T00:37:13.974Z,12.12
2023-05-14T00:38:13.925Z,12.08
2023-05-14T00:39:13.887Z,12.05
2023-05-14T00:40:13.869Z,12.08
2023-05-14T00:41:13.804Z,12.05
2023-05-14T00:42:13.765Z,12.03
2023-05-14T00:43:13.708Z,12.10
2023-05-14T00:44:13.661Z,12.00
2023-05-14T00:45:13.621Z,12.08
2023-05-14T00:46:13.642Z,12.00
2023-05-14T00:47:13.545Z,12.07
2023-05-14T00:48:13.486Z,12.10
2023-05-14T00:49:13.451Z,11.97
2023-05-14T00:50:13.405Z,12.02
2023-05-14T00:51:13.357Z,12.03
2023-05-14T00:52:13.315Z,12.05
2023-05-14T00:53:13.267Z,11.96
2023-05-14T00:54:13.234Z,11.95
2023-05-14T00:55:13.184Z,12.00
2023-05-14T00:56:13.140Z,12.02
2023-05-14T00:57:13.101Z,12.05
2023-05-14T00:58:13.047Z,11.97
2023-05-14T00:59:13.009Z,12.03
2023-05-14T01:00:12.957Z,12.00
2023-05-14T01:01:12.958Z,11.96
2023-05-14T01:02:12.911Z,12.03
2023-05-14T01:03:12.945Z,11.99
2023-05-14T01:04:12.783Z,12.00
2023-05-14T01:05:12.749Z,11.97
2023-05-14T01:06:12.693Z,12.02
2023-05-14T01:07:12.650Z,11.95
2023-05-14T01:08:12.604Z,11.95
2023-05-14T01:09:12.568Z,11.93
2023-05-14T01:10:12.510Z,11.89
2023-05-14T01:11:12.473Z,11.89
2023-05-14T01:12:12.446Z,11.86
2023-05-14T01:13:12.383Z,11.93
2023-05-14T01:14:12.342Z,11.91
2023-05-14T01:15:12.297Z,11.88
2023-05-14T01:16:12.276Z,11.89
2023-05-14T01:17:12.205Z,11.85
2023-05-14T01:18:12.341Z,11.88
2023-05-14T01:19:12.188Z,11.77
2023-05-14T01:20:12.228Z,11.81
2023-05-14T01:21:12.030Z,11.85
2023-05-14T01:22:11.984Z,11.83
2023-05-14T01:23:11.939Z,11.76
2023-05-14T01:24:11.892Z,11.77
2023-05-14T01:25:11.860Z,11.74
2023-05-14T01:26:11.808Z,11.73
2023-05-14T01:27:11.766Z,11.70
2023-05-14T01:28:11.716Z,11.65
2023-05-14T01:29:11.694Z,11.67
2023-05-14T01:30:11.627Z,11.68
2023-05-14T01:31:11.586Z,11.68
2023-05-14T01:32:11.574Z,11.71
2023-05-14T01:33:11.517Z,11.70
2023-05-14T01:34:11.472Z,11.68
2023-05-14T01:35:11.416Z,11.71
2023-05-14T01:36:11.369Z,11.62
2023-05-14T01:37:11.349Z,11.65
2023-05-14T01:38:11.272Z,11.62
2023-05-14T01:39:11.243Z,11.62
2023-05-14T01:40:11.199Z,11.53
2023-05-14T01:41:11.141Z,11.53
2023-05-14T01:42:11.096Z,11.59
2023-05-14T01:43:11.097Z,11.58
2023-05-14T01:44:11.015Z,11.63
2023-05-14T01:45:10.964Z,11.51
2023-05-14T01:46:10.942Z,11.58
2023-05-14T01:47:10.904Z,11.56
2023-05-14T01:48:11.062Z,11.51
2023-05-14T01:49:10.799Z,11.51
2023-05-14T01:50:10.756Z,11.48
2023-05-14T01:51:10.693Z,11.59
2023-05-14T01:52:10.648Z,11.62
2023-05-14T01:53:10.608Z,11.49
2023-05-14T01:54:10.572Z,11.55
2023-05-14T01:55:10.522Z,11.49
2023-05-14T01:56:10.482Z,11.55
2023-05-14T01:57:10.430Z,11.48
2023-05-14T01:58:10.382Z,11.45
2023-05-14T01:59:10.347Z,11.40
2023-05-14T02:00:10.294Z,11.48
2023-05-14T02:01:10.277Z,11.45
2023-05-14T02:02:10.204Z,11.49
2023-05-14T02:03:10.198Z,11.48
2023-05-14T02:04:10.188Z,11.41
2023-05-14T02:05:10.075Z,11.33
2023-05-14T02:06:10.054Z,11.45
2023-05-14T02:07:09.990Z,11.30
2023-05-14T02:08:09.937Z,11.27
2023-05-14T02:09:09.896Z,11.31
2023-05-14T02:10:09.852Z,11.33
2023-05-14T02:11:09.807Z,11.26
2023-05-14T02:12:09.760Z,11.23
2023-05-14T02:13:09.714Z,11.20
2023-05-14T02:14:09.683Z,11.26
2023-05-14T02:15:09.633Z,11.25
2023-05-14T02:16:09.599Z,11.22
2023-05-14T02:17:09.539Z,11.23
2023-05-14T02:18:09.555Z,11.18
2023-05-14T02:19:09.556Z,11.18
2023-05-14T02:20:09.410Z,11.19
2023-05-14T02:21:09.363Z,11.07
2023-05-14T02:22:09.335Z,11.07
2023-05-14T02:23:09.271Z,11.08
2023-05-14T02:24:09.230Z,11.10
2023-05-14T02:25:09.185Z,11.08
2023-05-14T02:26:09.145Z,11.07
2023-05-14T02:27:09.093Z,11.04
2023-05-14T02:28:09.048Z,11.04
2023-05-14T02:29:09.006Z,11.05
2023-05-14T02:30:08.956Z,11.05
2023-05-14T02:31:08.938Z,11.10
2023-05-14T02:32:08.900Z,11.02
2023-05-14T02:33:08.948Z,11.04
2023-05-14T02:34:08.784Z,11.07
2023-05-14T02:35:08.738Z,10.97
2023-05-14T02:36:08.697Z,10.92
2023-05-14T02:37:08.659Z,10.98
2023-05-14T02:38:08.630Z,11.02
2023-05-14T02:39:08.571Z,10.97
2023-05-14T02:40:08.513Z,10.87
2023-05-14T02:41:08.471Z,10.89
2023-05-14T02:42:08.428Z,10.90
2023-05-14T02:43:08.376Z,10.94
2023-05-14T02:44:08.335Z,10.95
2023-05-14T02:45:08.289Z,10.94
2023-05-14T02:46:08.248Z,10.94
2023-05-14T02:47:08.285Z,10.92
2023-05-14T02:48:08.260Z,10.84
2023-05-14T02:49:08.119Z,10.84
2023-05-14T02:50:08.065Z,10.86
2023-05-14T02:51:08.023Z,10.94
2023-05-14T02:52:07.985Z,10.94
2023-05-14T02:53:07.934Z,10.89
2023-05-14T02:54:07.931Z,10.94
2023-05-14T02:55:07.843Z,10.84
2023-05-14T02:56:07.797Z,10.77
2023-05-14T02:57:07.759Z,10.89
2023-05-14T02:58:07.711Z,10.83
2023-05-14T02:59:07.673Z,10.83
2023-05-14T03:00:07.619Z,10.83
2023-05-14T03:01:07.736Z,10.80
2023-05-14T03:02:07.660Z,10.84
2023-05-14T03:03:07.527Z,10.86
2023-05-14T03:04:07.464Z,10.84
2023-05-14T03:05:07.419Z,10.77
2023-05-14T03:06:07.354Z,10.80
2023-05-14T03:07:07.303Z,10.71
2023-05-14T03:08:07.260Z,10.68
2023-05-14T03:09:07.220Z,10.76
2023-05-14T03:10:07.195Z,10.75
2023-05-14T03:11:07.129Z,10.75
2023-05-14T03:12:07.083Z,10.71
2023-05-14T03:13:07.041Z,10.79
2023-05-14T03:14:06.998Z,10.68
2023-05-14T03:15:06.947Z,10.76
2023-05-14T03:16:06.912Z,10.71
2023-05-14T03:17:06.938Z,10.71
2023-05-14T03:18:06.870Z,10.75
2023-05-14T03:20:06.729Z,10.67
2023-05-14T03:21:06.689Z,10.76
2023-05-14T03:22:06.638Z,10.75
2023-05-14T03:23:06.589Z,10.69
2023-05-14T03:24:06.542Z,10.72
2023-05-14T03:25:06.499Z,10.62
2023-05-14T03:26:06.474Z,10.69
2023-05-14T03:27:06.418Z,10.67
2023-05-14T03:28:06.367Z,10.75
2023-05-14T03:29:06.322Z,10.71
2023-05-14T03:30:06.277Z,10.69
2023-05-14T03:31:06.278Z,10.62
2023-05-14T03:32:06.200Z,10.69
2023-05-14T03:33:06.275Z,10.59
2023-05-14T03:34:06.101Z,10.58
2023-05-14T03:35:06.055Z,10.68
2023-05-14T03:36:06.015Z,10.61
2023-05-14T03:37:05.969Z,10.59
2023-05-14T03:38:05.932Z,10.64
2023-05-14T03:39:05.875Z,10.64
2023-05-14T03:40:05.829Z,10.61
2023-05-14T03:41:05.795Z,10.65
2023-05-14T03:42:05.811Z,10.67
2023-05-14T03:43:05.699Z,10.59
2023-05-14T03:44:05.650Z,10.64
2023-05-14T03:45:05.610Z,10.62
2023-05-14T03:46:05.554Z,10.59
2023-05-14T03:47:05.527Z,10.64
2023-05-14T03:48:05.592Z,10.68
2023-05-14T03:49:05.513Z,10.69
2023-05-14T03:50:05.377Z,10.68
2023-05-14T03:51:05.339Z,10.68
2023-05-14T03:52:05.292Z,10.68
2023-05-14T03:53:05.246Z,10.64
2023-05-14T03:54:05.203Z,10.68
2023-05-14T03:55:05.156Z,10.64
2023-05-14T03:56:05.130Z,10.65
2023-05-14T03:57:05.075Z,10.68
2023-05-14T03:58:05.072Z,10.67
2023-05-14T03:59:04.989Z,10.67
2023-05-14T04:00:04.932Z,10.72
2023-05-14T04:01:04.886Z,10.69
2023-05-14T04:02:04.843Z,10.75
2023-05-14T04:03:04.857Z,10.72
2023-05-14T04:04:04.835Z,10.75
2023-05-14T04:05:04.712Z,10.69
2023-05-14T04:06:04.667Z,10.77
2023-05-14T04:07:04.625Z,10.75
2023-05-14T04:08:04.573Z,10.69
2023-05-14T04:09:04.532Z,10.72
2023-05-14T04:10:04.825Z,10.68
2023-05-14T04:11:04.437Z,10.80
2023-05-14T04:12:04.389Z,10.79
2023-05-14T04:13:04.351Z,10.72
2023-05-14T04:14:04.319Z,10.79
2023-05-14T04:15:04.259Z,10.75
2023-05-14T04:16:04.227Z,10.77
2023-05-14T04:17:04.182Z,10.83
2023-05-14T04:18:04.167Z,10.87
2023-05-14T04:19:04.228Z,10.80
2023-05-14T04:20:04.036Z,10.82
2023-05-14T04:21:03.988Z,10.82
2023-05-14T04:22:03.950Z,10.86
2023-05-14T04:23:03.906Z,10.89
2023-05-14T04:24:03.854Z,10.80
2023-05-14T04:25:03.809Z,10.83
2023-05-14T04:26:03.769Z,10.87
2023-05-14T04:27:03.728Z,10.84
2023-05-14T04:28:03.698Z,10.83
2023-05-14T04:29:03.689Z,10.95
2023-05-14T04:30:03.611Z,10.82
2023-05-14T04:31:03.547Z,10.95
2023-05-14T04:32:03.531Z,10.90
2023-05-14T04:33:03.546Z,10.86
2023-05-14T04:34:03.397Z,10.86
2023-05-14T04:35:03.362Z,10.89
2023-05-14T04:36:03.311Z,10.92
2023-05-14T04:37:03.271Z,10.94
2023-05-14T04:38:03.224Z,10.92
2023-05-14T04:39:03.184Z,10.98
2023-05-14T04:40:03.141Z,11.04
2023-05-14T04:41:03.096Z,11.08
2023-05-14T04:42:03.049Z,11.02
2023-05-14T04:43:03.012Z,11.08
2023-05-14T04:44:02.951Z,11.10
2023-05-14T04:45:02.915Z,11.04
2023-05-14T04:46:03.009Z,11.15
2023-05-14T04:47:02.822Z,11.16
2023-05-14T04:48:02.836Z,11.12
2023-05-14T04:49:02.728Z,11.15
2023-05-14T04:50:02.683Z,11.20
2023-05-14T04:51:03.590Z,11.20
2023-05-14T04:52:02.607Z,11.22
2023-05-14T04:53:02.554Z,11.25
2023-05-14T04:54:02.562Z,11.34
2023-05-14T04:55:02.467Z,11.26
2023-05-14T04:56:02.414Z,11.30
2023-05-14T04:57:02.383Z,11.26
2023-05-14T04:58:02.337Z,11.34
2023-05-14T04:59:02.283Z,11.34
2023-05-14T05:00:02.234Z,11.37
2023-05-14T05:01:02.277Z,11.37
2023-05-14T05:02:02.180Z,11.37
2023-05-14T05:03:02.247Z,11.44
2023-05-14T05:04:02.226Z,11.41
2023-05-14T05:05:02.049Z,11.48
2023-05-14T05:06:01.973Z,11.49
2023-05-14T05:07:01.931Z,11.48
2023-05-14T05:08:01.883Z,11.44
2023-05-14T05:09:02.231Z,11.45
2023-05-14T05:10:01.803Z,11.55
2023-05-14T05:11:01.755Z,11.56
2023-05-14T05:12:01.712Z,11.44
2023-05-14T05:13:01.663Z,11.45
2023-05-14T05:14:01.622Z,11.59
2023-05-14T05:15:01.588Z,11.45
2023-05-14T05:16:01.547Z,11.51
2023-05-14T05:17:01.487Z,11.58
2023-05-14T05:18:01.493Z,11.59
2023-05-14T05:19:01.409Z,11.59
2023-05-14T05:20:01.352Z,11.58
2023-05-14T05:21:01.314Z,11.62
2023-05-14T05:22:01.276Z,11.68
2023-05-14T05:23:01.224Z,11.68
2023-05-14T05:24:01.173Z,11.68
2023-05-14T05:25:01.131Z,11.63
2023-05-14T05:26:01.095Z,11.70
2023-05-14T05:27:01.054Z,11.76
2023-05-14T05:28:00.996Z,11.83
2023-05-14T05:29:00.959Z,11.91
2023-05-14T05:30:00.920Z,11.88
2023-05-14T05:31:00.904Z,11.88
2023-05-14T05:32:00.857Z,12.00
2023-05-14T05:33:00.804Z,11.91
2023-05-14T05:34:00.773Z,11.97
2023-05-14T05:35:00.713Z,12.02
2023-05-14T05:36:00.660Z,12.10
2023-05-14T05:37:00.597Z,12.07
2023-05-14T05:38:01.707Z,12.15
2023-05-14T05:39:00.519Z,12.28
2023-05-14T05:40:00.479Z,12.29
2023-05-14T05:41:00.423Z,12.23
2023-05-14T05:42:00.379Z,12.28
2023-05-14T05:43:00.334Z,12.35
2023-05-14T05:44:00.287Z,12.32
2023-05-14T05:45:00.242Z,12.37
2023-05-14T05:46:00.396Z,12.39
2023-05-14T05:47:00.201Z,12.47
2023-05-14T05:48:00.217Z,12.43
2023-05-14T05:49:00.074Z,12.36
2023-05-14T05:50:00.041Z,12.40
2023-05-14T05:50:59.980Z,12.40
2023-05-14T05:51:59.931Z,12.44
2023-05-14T05:52:59.898Z,12.45
2023-05-14T05:53:59.870Z,12.48
2023-05-14T05:54:59.807Z,12.51
2023-05-14T05:55:59.761Z,12.55
2023-05-14T05:56:59.722Z,12.68
2023-05-14T05:57:59.675Z,12.57
2023-05-14T05:58:59.649Z,12.66
2023-05-14T05:59:59.586Z,12.63
2023-05-14T06:00:59.559Z,12.63
2023-05-14T06:01:59.601Z,12.69
2023-05-14T06:02:59.474Z,12.72
2023-05-14T06:03:59.408Z,12.76
2023-05-14T06:04:59.377Z,12.75
2023-05-14T06:05:59.358Z,12.70
2023-05-14T06:06:59.281Z,12.80
2023-05-14T06:07:59.238Z,12.87
2023-05-14T06:08:59.193Z,12.91
2023-05-14T06:09:59.161Z,12.91
2023-05-14T06:10:59.109Z,12.88
2023-05-14T19:40:28.670Z,18.45
2023-05-14T19:41:28.598Z,18.45
2023-05-14T19:42:28.561Z,18.49
2023-05-14T19:43:28.530Z,18.43
2023-05-14T19:44:28.469Z,18.43
2023-05-14T19:45:28.432Z,18.45
2023-05-14T19:46:28.426Z,18.39
2023-05-14T19:47:28.400Z,18.41
2023-05-14T19:48:28.297Z,18.36
2023-05-14T19:49:28.255Z,18.34
2023-05-14T19:50:28.220Z,18.34
2023-05-14T19:51:28.173Z,18.34
2023-05-14T19:52:28.131Z,18.37
2023-05-14T19:53:28.086Z,18.27
2023-05-14T19:54:28.048Z,18.28
2023-05-14T19:55:27.995Z,18.27
2023-05-14T19:56:28.016Z,18.23
2023-05-14T19:57:27.930Z,18.24
2023-05-14T19:58:27.869Z,18.13
2023-05-14T19:59:27.824Z,18.16
2023-05-14T20:00:28.075Z,18.21
2023-05-14T20:01:27.839Z,18.18
2023-05-14T20:02:27.795Z,18.12
2023-05-14T20:03:27.665Z,18.11
2023-05-14T20:04:27.614Z,18.08
2023-05-14T20:05:27.568Z,18.02
2023-05-14T20:06:27.533Z,18.11
2023-05-14T20:07:27.482Z,18.05
2023-05-14T20:08:27.437Z,18.06
2023-05-14T20:09:27.397Z,18.02
2023-05-14T20:10:27.685Z,17.95
2023-05-14T20:11:27.313Z,17.94
2023-05-14T20:12:27.297Z,17.95
2023-05-14T20:13:27.245Z,17.95
2023-05-14T20:14:27.185Z,17.87
2023-05-14T20:15:27.152Z,17.90
2023-05-14T20:16:27.135Z,17.82
2023-05-14T20:17:27.078Z,17.84
2023-05-14T20:18:27.073Z,17.80
2023-05-14T20:19:26.976Z,17.86
2023-05-14T20:20:28.382Z,17.80
2023-05-14T20:21:26.886Z,17.75
2023-05-14T20:23:26.805Z,17.72
2023-05-14T20:24:26.755Z,17.73
2023-05-14T20:25:28.563Z,17.68
2023-05-14T20:26:26.874Z,17.65
2023-05-14T20:27:26.625Z,17.60
2023-05-14T20:29:26.565Z,17.54
2023-05-14T20:30:26.652Z,17.52
2023-05-14T20:31:26.552Z,17.53
2023-05-14T20:32:26.440Z,17.52
2023-05-14T20:33:26.365Z,17.47
2023-05-14T20:35:09.726Z,17.50
2023-05-14T20:36:09.679Z,17.41
2023-05-14T20:37:09.642Z,17.35
2023-05-14T20:38:09.594Z,17.39
2023-05-14T20:39:09.563Z,17.31
2023-05-14T20:40:09.551Z,17.35
2023-05-14T20:41:09.473Z,17.34
2023-05-14T20:42:09.422Z,17.24
2023-05-14T20:43:09.385Z,17.31
2023-05-14T20:44:09.346Z,17.27
2023-05-14T20:46:09.299Z,17.19
2023-05-14T20:47:09.226Z,17.19
2023-05-14T20:48:09.192Z,17.16
2023-05-14T20:49:09.169Z,17.13
2023-05-14T20:50:09.080Z,17.14
2023-05-14T20:51:09.043Z,17.07
2023-05-14T20:52:09.001Z,17.10
2023-05-14T20:53:08.947Z,16.99
2023-05-14T20:54:08.908Z,17.02
2023-05-14T20:56:08.836Z,16.86
2023-05-14T20:57:08.772Z,16.99
2023-05-14T20:58:08.742Z,16.94
2023-05-14T20:59:08.701Z,16.89
2023-05-14T21:00:08.661Z,16.86
2023-05-14T21:02:09.228Z,16.83
2023-05-14T21:03:08.811Z,16.82
2023-05-14T21:04:08.705Z,16.79
2023-05-14T21:05:08.422Z,16.77
2023-05-14T21:06:08.395Z,16.73
2023-05-14T21:07:08.337Z,16.74
2023-05-14T21:08:08.318Z,16.66
2023-05-14T21:09:08.252Z,16.68
2023-05-14T21:10:08.208Z,16.65
2023-05-14T21:11:08.169Z,16.58
2023-05-14T21:12:08.130Z,16.57
2023-05-14T21:13:08.093Z,16.58
2023-05-14T21:14:08.042Z,16.57
2023-05-14T21:15:07.988Z,16.46
2023-05-14T21:16:08.006Z,16.41
2023-05-14T21:17:07.908Z,16.47
2023-05-14T21:18:08.075Z,16.44
2023-05-14T21:19:07.880Z,16.46
2023-05-14T21:20:07.852Z,16.36
2023-05-14T21:21:07.740Z,16.28
2023-05-14T21:22:07.752Z,16.36
2023-05-14T21:23:07.718Z,16.25
2023-05-14T21:24:07.621Z,16.21
2023-05-14T21:25:07.555Z,16.22
2023-05-14T21:26:07.511Z,16.16
2023-05-14T21:27:07.468Z,16.24
2023-05-14T21:28:07.425Z,16.24
2023-05-14T21:29:07.379Z,16.17
2023-05-14T21:30:07.341Z,16.09
2023-05-14T21:31:07.296Z,16.09
2023-05-14T21:32:07.326Z,16.05
2023-05-14T21:33:07.249Z,16.03
2023-05-14T21:34:08.602Z,16.08
2023-05-14T21:35:07.119Z,16.05
2023-05-14T21:36:07.073Z,16.02
2023-05-14T21:37:07.028Z,15.92
2023-05-14T21:38:06.984Z,15.91
2023-05-14T21:39:06.957Z,15.90
2023-05-14T21:40:06.904Z,15.91
2023-05-14T21:41:06.870Z,15.91
2023-05-14T21:42:06.817Z,15.88
2023-05-14T21:43:06.778Z,15.87
2023-05-14T21:44:06.739Z,15.83
2023-05-14T21:45:06.691Z,15.83
2023-05-14T21:46:06.638Z,15.85
2023-05-14T21:47:06.592Z,15.73
2023-05-14T21:48:06.631Z,15.80
2023-05-14T21:49:06.538Z,15.73
2023-05-14T21:50:06.479Z,15.81
2023-05-14T21:51:06.418Z,15.84
2023-05-14T21:52:06.372Z,15.76
2023-05-14T21:53:06.323Z,15.81
2023-05-14T21:54:06.281Z,15.76
2023-05-14T21:55:06.240Z,15.78
2023-05-14T21:56:06.230Z,15.81
2023-05-14T21:57:06.152Z,15.78
2023-05-14T21:58:06.115Z,15.85
2023-05-14T21:59:06.067Z,15.80
2023-05-14T22:00:06.045Z,15.67
2023-05-14T22:01:06.010Z,15.83
2023-05-14T22:02:07.581Z,15.83
2023-05-14T22:03:05.997Z,15.73
2023-05-14T22:04:05.877Z,15.80
2023-05-14T22:05:05.806Z,15.69
2023-05-14T22:06:05.792Z,15.75
2023-05-14T22:07:05.716Z,15.72
2023-05-14T22:08:05.667Z,15.70
2023-05-14T22:09:05.628Z,15.70
2023-05-14T22:10:05.576Z,15.70
2023-05-14T22:11:05.534Z,15.67
2023-05-14T22:12:05.495Z,15.73
2023-05-14T22:13:05.450Z,15.78
2023-05-14T22:14:05.424Z,15.73
2023-05-14T22:15:05.356Z,15.73
2023-05-14T22:16:12.694Z,15.73
2023-05-14T22:17:05.268Z,15.75
